sensor_id;sensor_type;location;lat;lon;timestamp;P1;durP1;ratioP1;P2;durP2;ratioP2
7527;SDS011;3805;49.006;8.514;2024-03-07T00:01:10;35.60;;;23.80;;
7527;SDS011;3805;49.006;8.514;2024-03-07T00:03:58;36.97;;;23.53;;
7527;SDS011;3805;49.006;8.514;2024-03-07T00:06:47;38.00;;;23.50;;
7527;SDS011;3805;49.006;8.514;2024-03-07T00:09:37;37.60;;;23.77;;
7527;SDS011;3805;49.006;8.514;2024-03-07T00:12:26;33.90;;;21.90;;
7527;SDS011;3805;49.006;8.514;2024-03-07T00:15:15;34.57;;;24.33;;
7527;SDS011;3805;49.006;8.514;2024-03-07T00:18:05;38.83;;;23.80;;
7527;SDS011;3805;49.006;8.514;2024-03-07T00:20:54;39.50;;;23.50;;
7527;SDS011;3805;49.006;8.514;2024-03-07T00:23:43;36.60;;;24.63;;
7527;SDS011;3805;49.006;8.514;2024-03-07T00:26:33;44.67;;;23.80;;
7527;SDS011;3805;49.006;8.514;2024-03-07T00:29:23;38.80;;;25.40;;
7527;SDS011;3805;49.006;8.514;2024-03-07T00:32:12;36.87;;;22.87;;
7527;SDS011;3805;49.006;8.514;2024-03-07T00:35:02;36.80;;;22.13;;
7527;SDS011;3805;49.006;8.514;2024-03-07T00:37:51;37.93;;;23.23;;
7527;SDS011;3805;49.006;8.514;2024-03-07T00:40:40;34.57;;;23.47;;
7527;SDS011;3805;49.006;8.514;2024-03-07T00:43:30;37.07;;;22.80;;
7527;SDS011;3805;49.006;8.514;2024-03-07T00:46:18;29.83;;;20.77;;
7527;SDS011;3805;49.006;8.514;2024-03-07T00:49:07;33.17;;;21.77;;
7527;SDS011;3805;49.006;8.514;2024-03-07T00:51:55;34.27;;;22.10;;
7527;SDS011;3805;49.006;8.514;2024-03-07T00:54:46;35.17;;;20.93;;
7527;SDS011;3805;49.006;8.514;2024-03-07T00:57:35;31.37;;;21.43;;
7527;SDS011;3805;49.006;8.514;2024-03-07T01:00:25;39.70;;;22.90;;
7527;SDS011;3805;49.006;8.514;2024-03-07T01:03:15;37.97;;;24.00;;
7527;SDS011;3805;49.006;8.514;2024-03-07T01:06:04;35.40;;;22.90;;
7527;SDS011;3805;49.006;8.514;2024-03-07T01:08:53;28.33;;;20.40;;
7527;SDS011;3805;49.006;8.514;2024-03-07T01:11:42;40.30;;;24.40;;
7527;SDS011;3805;49.006;8.514;2024-03-07T01:14:32;33.97;;;22.50;;
7527;SDS011;3805;49.006;8.514;2024-03-07T01:17:22;32.20;;;21.47;;
7527;SDS011;3805;49.006;8.514;2024-03-07T01:20:11;36.43;;;24.27;;
7527;SDS011;3805;49.006;8.514;2024-03-07T01:22:59;35.53;;;22.43;;
7527;SDS011;3805;49.006;8.514;2024-03-07T01:25:48;35.63;;;23.40;;
7527;SDS011;3805;49.006;8.514;2024-03-07T01:28:36;36.50;;;22.40;;
7527;SDS011;3805;49.006;8.514;2024-03-07T01:31:25;39.60;;;23.87;;
7527;SDS011;3805;49.006;8.514;2024-03-07T01:34:15;45.73;;;26.17;;
7527;SDS011;3805;49.006;8.514;2024-03-07T01:37:05;44.83;;;28.47;;
7527;SDS011;3805;49.006;8.514;2024-03-07T01:39:55;41.73;;;28.20;;
7527;SDS011;3805;49.006;8.514;2024-03-07T01:42:46;48.90;;;29.43;;
7527;SDS011;3805;49.006;8.514;2024-03-07T01:45:35;47.20;;;28.03;;
7527;SDS011;3805;49.006;8.514;2024-03-07T01:48:25;46.77;;;29.10;;
7527;SDS011;3805;49.006;8.514;2024-03-07T01:51:17;46.63;;;29.70;;
7527;SDS011;3805;49.006;8.514;2024-03-07T01:54:06;49.17;;;30.33;;
7527;SDS011;3805;49.006;8.514;2024-03-07T01:56:56;49.47;;;29.87;;
7527;SDS011;3805;49.006;8.514;2024-03-07T01:59:45;50.57;;;32.33;;
7527;SDS011;3805;49.006;8.514;2024-03-07T02:02:36;51.77;;;30.83;;
7527;SDS011;3805;49.006;8.514;2024-03-07T02:05:25;43.43;;;27.73;;
7527;SDS011;3805;49.006;8.514;2024-03-07T02:08:15;51.83;;;30.37;;
7527;SDS011;3805;49.006;8.514;2024-03-07T02:11:04;45.30;;;29.60;;
7527;SDS011;3805;49.006;8.514;2024-03-07T02:13:53;52.77;;;31.87;;
7527;SDS011;3805;49.006;8.514;2024-03-07T02:16:41;48.90;;;28.87;;
7527;SDS011;3805;49.006;8.514;2024-03-07T02:19:30;49.07;;;30.53;;
7527;SDS011;3805;49.006;8.514;2024-03-07T02:22:20;45.33;;;28.13;;
7527;SDS011;3805;49.006;8.514;2024-03-07T02:25:09;49.43;;;27.83;;
7527;SDS011;3805;49.006;8.514;2024-03-07T02:27:58;45.00;;;26.90;;
7527;SDS011;3805;49.006;8.514;2024-03-07T02:30:46;51.43;;;31.10;;
7527;SDS011;3805;49.006;8.514;2024-03-07T02:33:35;42.70;;;29.37;;
7527;SDS011;3805;49.006;8.514;2024-03-07T02:36:24;50.57;;;27.70;;
7527;SDS011;3805;49.006;8.514;2024-03-07T02:39:14;47.80;;;28.43;;
7527;SDS011;3805;49.006;8.514;2024-03-07T02:42:03;43.03;;;28.43;;
7527;SDS011;3805;49.006;8.514;2024-03-07T02:44:53;51.33;;;31.33;;
7527;SDS011;3805;49.006;8.514;2024-03-07T02:47:41;47.63;;;29.87;;
7527;SDS011;3805;49.006;8.514;2024-03-07T02:50:31;42.20;;;27.27;;
7527;SDS011;3805;49.006;8.514;2024-03-07T02:53:20;50.73;;;30.53;;
7527;SDS011;3805;49.006;8.514;2024-03-07T02:56:10;45.70;;;27.67;;
7527;SDS011;3805;49.006;8.514;2024-03-07T02:58:59;45.17;;;29.03;;
7527;SDS011;3805;49.006;8.514;2024-03-07T03:01:51;44.03;;;26.80;;
7527;SDS011;3805;49.006;8.514;2024-03-07T03:04:39;51.30;;;29.80;;
7527;SDS011;3805;49.006;8.514;2024-03-07T03:07:28;50.90;;;28.43;;
7527;SDS011;3805;49.006;8.514;2024-03-07T03:10:16;47.57;;;29.70;;
7527;SDS011;3805;49.006;8.514;2024-03-07T03:13:06;45.80;;;27.47;;
7527;SDS011;3805;49.006;8.514;2024-03-07T03:15:55;45.47;;;28.23;;
7527;SDS011;3805;49.006;8.514;2024-03-07T03:18:44;41.10;;;28.13;;
7527;SDS011;3805;49.006;8.514;2024-03-07T03:21:32;44.27;;;28.20;;
7527;SDS011;3805;49.006;8.514;2024-03-07T03:24:21;44.50;;;27.97;;
7527;SDS011;3805;49.006;8.514;2024-03-07T03:27:10;40.27;;;25.97;;
7527;SDS011;3805;49.006;8.514;2024-03-07T03:30:00;42.60;;;27.70;;
7527;SDS011;3805;49.006;8.514;2024-03-07T03:32:49;42.20;;;27.83;;
7527;SDS011;3805;49.006;8.514;2024-03-07T03:35:37;50.33;;;27.97;;
7527;SDS011;3805;49.006;8.514;2024-03-07T03:38:27;48.80;;;29.90;;
7527;SDS011;3805;49.006;8.514;2024-03-07T03:41:21;47.43;;;27.97;;
7527;SDS011;3805;49.006;8.514;2024-03-07T03:44:10;46.10;;;27.90;;
7527;SDS011;3805;49.006;8.514;2024-03-07T03:47:00;45.37;;;28.20;;
7527;SDS011;3805;49.006;8.514;2024-03-07T03:49:51;49.10;;;31.00;;
7527;SDS011;3805;49.006;8.514;2024-03-07T03:52:44;49.03;;;28.77;;
7527;SDS011;3805;49.006;8.514;2024-03-07T03:55:33;47.03;;;28.13;;
7527;SDS011;3805;49.006;8.514;2024-03-07T03:58:22;44.50;;;28.77;;
7527;SDS011;3805;49.006;8.514;2024-03-07T04:01:11;44.27;;;29.77;;
7527;SDS011;3805;49.006;8.514;2024-03-07T04:04:03;43.50;;;27.40;;
7527;SDS011;3805;49.006;8.514;2024-03-07T04:06:52;49.97;;;30.07;;
7527;SDS011;3805;49.006;8.514;2024-03-07T04:09:42;48.50;;;29.23;;
7527;SDS011;3805;49.006;8.514;2024-03-07T04:12:30;44.53;;;28.27;;
7527;SDS011;3805;49.006;8.514;2024-03-07T04:15:21;45.53;;;29.87;;
7527;SDS011;3805;49.006;8.514;2024-03-07T04:18:13;46.83;;;28.93;;
7527;SDS011;3805;49.006;8.514;2024-03-07T04:21:03;52.10;;;28.30;;
7527;SDS011;3805;49.006;8.514;2024-03-07T04:23:52;50.93;;;31.33;;
7527;SDS011;3805;49.006;8.514;2024-03-07T04:26:41;49.90;;;29.10;;
7527;SDS011;3805;49.006;8.514;2024-03-07T04:29:31;47.67;;;29.87;;
7527;SDS011;3805;49.006;8.514;2024-03-07T04:32:20;44.27;;;28.50;;
7527;SDS011;3805;49.006;8.514;2024-03-07T04:35:09;51.83;;;28.23;;
7527;SDS011;3805;49.006;8.514;2024-03-07T04:38:03;49.77;;;27.40;;
7527;SDS011;3805;49.006;8.514;2024-03-07T04:40:56;49.07;;;29.20;;
7527;SDS011;3805;49.006;8.514;2024-03-07T04:43:48;56.10;;;29.83;;
7527;SDS011;3805;49.006;8.514;2024-03-07T04:46:36;47.83;;;30.20;;
7527;SDS011;3805;49.006;8.514;2024-03-07T04:49:30;54.67;;;31.30;;
7527;SDS011;3805;49.006;8.514;2024-03-07T04:52:20;39.17;;;27.07;;
7527;SDS011;3805;49.006;8.514;2024-03-07T04:55:10;45.40;;;28.27;;
7527;SDS011;3805;49.006;8.514;2024-03-07T04:57:58;48.83;;;28.77;;
7527;SDS011;3805;49.006;8.514;2024-03-07T05:00:47;50.80;;;29.73;;
7527;SDS011;3805;49.006;8.514;2024-03-07T05:03:35;49.27;;;30.77;;
7527;SDS011;3805;49.006;8.514;2024-03-07T05:06:24;45.90;;;28.90;;
7527;SDS011;3805;49.006;8.514;2024-03-07T05:09:12;50.77;;;30.90;;
7527;SDS011;3805;49.006;8.514;2024-03-07T05:12:11;45.03;;;28.37;;
7527;SDS011;3805;49.006;8.514;2024-03-07T05:15:00;47.20;;;28.27;;
7527;SDS011;3805;49.006;8.514;2024-03-07T05:17:59;47.50;;;29.90;;
7527;SDS011;3805;49.006;8.514;2024-03-07T05:20:50;47.13;;;30.23;;
7527;SDS011;3805;49.006;8.514;2024-03-07T05:23:39;46.07;;;28.53;;
7527;SDS011;3805;49.006;8.514;2024-03-07T05:26:28;54.00;;;30.60;;
7527;SDS011;3805;49.006;8.514;2024-03-07T05:29:22;52.23;;;27.33;;
7527;SDS011;3805;49.006;8.514;2024-03-07T05:32:20;56.60;;;31.00;;
7527;SDS011;3805;49.006;8.514;2024-03-07T05:35:11;50.23;;;30.40;;
7527;SDS011;3805;49.006;8.514;2024-03-07T05:37:59;52.60;;;30.70;;
7527;SDS011;3805;49.006;8.514;2024-03-07T05:40:51;57.13;;;31.93;;
7527;SDS011;3805;49.006;8.514;2024-03-07T05:43:40;47.33;;;29.37;;
7527;SDS011;3805;49.006;8.514;2024-03-07T05:46:35;51.63;;;31.20;;
7527;SDS011;3805;49.006;8.514;2024-03-07T05:49:28;61.93;;;33.63;;
7527;SDS011;3805;49.006;8.514;2024-03-07T05:52:18;54.03;;;31.40;;
7527;SDS011;3805;49.006;8.514;2024-03-07T05:55:10;56.07;;;30.67;;
7527;SDS011;3805;49.006;8.514;2024-03-07T05:57:59;55.17;;;31.30;;
7527;SDS011;3805;49.006;8.514;2024-03-07T06:00:50;53.07;;;31.70;;
7527;SDS011;3805;49.006;8.514;2024-03-07T06:03:42;48.57;;;28.23;;
7527;SDS011;3805;49.006;8.514;2024-03-07T06:06:31;55.50;;;31.37;;
7527;SDS011;3805;49.006;8.514;2024-03-07T06:09:21;56.87;;;32.60;;
7527;SDS011;3805;49.006;8.514;2024-03-07T06:12:10;53.77;;;31.23;;
7527;SDS011;3805;49.006;8.514;2024-03-07T06:15:12;52.37;;;31.83;;
7527;SDS011;3805;49.006;8.514;2024-03-07T06:18:01;53.87;;;31.30;;
7527;SDS011;3805;49.006;8.514;2024-03-07T06:20:59;50.70;;;29.37;;
7527;SDS011;3805;49.006;8.514;2024-03-07T06:23:48;56.90;;;31.73;;
7527;SDS011;3805;49.006;8.514;2024-03-07T06:26:42;53.43;;;30.43;;
7527;SDS011;3805;49.006;8.514;2024-03-07T06:29:36;51.63;;;30.27;;
7527;SDS011;3805;49.006;8.514;2024-03-07T06:32:24;52.33;;;31.27;;
7527;SDS011;3805;49.006;8.514;2024-03-07T06:35:13;49.97;;;30.13;;
7527;SDS011;3805;49.006;8.514;2024-03-07T06:38:06;46.63;;;28.40;;
7527;SDS011;3805;49.006;8.514;2024-03-07T06:40:55;50.40;;;29.40;;
7527;SDS011;3805;49.006;8.514;2024-03-07T06:43:44;49.33;;;30.00;;
7527;SDS011;3805;49.006;8.514;2024-03-07T06:46:32;48.97;;;28.83;;
7527;SDS011;3805;49.006;8.514;2024-03-07T06:49:21;51.40;;;30.33;;
7527;SDS011;3805;49.006;8.514;2024-03-07T06:52:11;49.13;;;30.93;;
7527;SDS011;3805;49.006;8.514;2024-03-07T06:55:01;49.83;;;30.13;;
7527;SDS011;3805;49.006;8.514;2024-03-07T06:57:50;42.93;;;27.03;;
7527;SDS011;3805;49.006;8.514;2024-03-07T07:00:39;48.73;;;29.27;;
7527;SDS011;3805;49.006;8.514;2024-03-07T07:03:28;50.00;;;31.57;;
7527;SDS011;3805;49.006;8.514;2024-03-07T07:06:16;49.07;;;30.70;;
7527;SDS011;3805;49.006;8.514;2024-03-07T07:09:06;47.30;;;30.63;;
7527;SDS011;3805;49.006;8.514;2024-03-07T07:11:56;43.23;;;28.10;;
7527;SDS011;3805;49.006;8.514;2024-03-07T07:14:44;46.80;;;26.90;;
7527;SDS011;3805;49.006;8.514;2024-03-07T07:17:33;49.83;;;28.50;;
7527;SDS011;3805;49.006;8.514;2024-03-07T07:20:22;42.30;;;28.00;;
7527;SDS011;3805;49.006;8.514;2024-03-07T07:23:12;49.07;;;29.27;;
7527;SDS011;3805;49.006;8.514;2024-03-07T07:26:00;54.10;;;33.63;;
7527;SDS011;3805;49.006;8.514;2024-03-07T07:28:50;40.00;;;27.50;;
7527;SDS011;3805;49.006;8.514;2024-03-07T07:31:41;40.67;;;26.87;;
7527;SDS011;3805;49.006;8.514;2024-03-07T07:34:30;39.60;;;25.57;;
7527;SDS011;3805;49.006;8.514;2024-03-07T07:37:18;41.37;;;25.70;;
7527;SDS011;3805;49.006;8.514;2024-03-07T07:40:07;39.83;;;25.53;;
7527;SDS011;3805;49.006;8.514;2024-03-07T07:42:56;37.87;;;25.30;;
7527;SDS011;3805;49.006;8.514;2024-03-07T07:45:46;32.50;;;22.40;;
7527;SDS011;3805;49.006;8.514;2024-03-07T07:48:35;37.13;;;23.63;;
7527;SDS011;3805;49.006;8.514;2024-03-07T07:51:24;34.40;;;23.83;;
7527;SDS011;3805;49.006;8.514;2024-03-07T07:54:14;35.87;;;24.20;;
7527;SDS011;3805;49.006;8.514;2024-03-07T07:57:03;33.40;;;23.70;;
7527;SDS011;3805;49.006;8.514;2024-03-07T07:59:52;31.97;;;22.23;;
7527;SDS011;3805;49.006;8.514;2024-03-07T08:02:42;33.90;;;21.77;;
7527;SDS011;3805;49.006;8.514;2024-03-07T08:05:31;30.10;;;21.27;;
7527;SDS011;3805;49.006;8.514;2024-03-07T08:08:20;29.80;;;19.80;;
7527;SDS011;3805;49.006;8.514;2024-03-07T08:11:09;28.73;;;21.13;;
7527;SDS011;3805;49.006;8.514;2024-03-07T08:13:59;33.30;;;21.57;;
7527;SDS011;3805;49.006;8.514;2024-03-07T08:16:48;27.90;;;20.33;;
7527;SDS011;3805;49.006;8.514;2024-03-07T08:19:38;28.03;;;20.40;;
7527;SDS011;3805;49.006;8.514;2024-03-07T08:22:27;31.83;;;19.90;;
7527;SDS011;3805;49.006;8.514;2024-03-07T08:25:16;33.07;;;22.13;;
7527;SDS011;3805;49.006;8.514;2024-03-07T08:28:05;32.97;;;21.40;;
7527;SDS011;3805;49.006;8.514;2024-03-07T08:30:55;28.90;;;21.27;;
7527;SDS011;3805;49.006;8.514;2024-03-07T08:33:43;27.93;;;19.50;;
7527;SDS011;3805;49.006;8.514;2024-03-07T08:36:34;33.53;;;21.33;;
7527;SDS011;3805;49.006;8.514;2024-03-07T08:39:25;28.00;;;20.10;;
7527;SDS011;3805;49.006;8.514;2024-03-07T08:42:16;28.67;;;19.30;;
7527;SDS011;3805;49.006;8.514;2024-03-07T08:45:05;28.47;;;21.03;;
7527;SDS011;3805;49.006;8.514;2024-03-07T08:47:57;29.93;;;19.20;;
7527;SDS011;3805;49.006;8.514;2024-03-07T08:50:46;30.30;;;21.63;;
7527;SDS011;3805;49.006;8.514;2024-03-07T08:53:36;32.60;;;18.57;;
7527;SDS011;3805;49.006;8.514;2024-03-07T08:56:25;31.13;;;21.27;;
7527;SDS011;3805;49.006;8.514;2024-03-07T08:59:14;27.60;;;18.53;;
7527;SDS011;3805;49.006;8.514;2024-03-07T09:02:05;31.27;;;19.77;;
7527;SDS011;3805;49.006;8.514;2024-03-07T09:04:54;32.63;;;21.20;;
7527;SDS011;3805;49.006;8.514;2024-03-07T09:07:43;34.57;;;20.90;;
7527;SDS011;3805;49.006;8.514;2024-03-07T09:10:34;29.50;;;20.20;;
7527;SDS011;3805;49.006;8.514;2024-03-07T09:13:23;29.97;;;18.83;;
7527;SDS011;3805;49.006;8.514;2024-03-07T09:16:14;27.30;;;20.13;;
7527;SDS011;3805;49.006;8.514;2024-03-07T09:19:02;28.13;;;20.13;;
7527;SDS011;3805;49.006;8.514;2024-03-07T09:21:51;31.70;;;20.47;;
7527;SDS011;3805;49.006;8.514;2024-03-07T09:24:42;22.93;;;17.43;;
7527;SDS011;3805;49.006;8.514;2024-03-07T09:27:32;27.57;;;18.97;;
7527;SDS011;3805;49.006;8.514;2024-03-07T09:30:20;30.87;;;20.13;;
7527;SDS011;3805;49.006;8.514;2024-03-07T09:33:13;32.40;;;20.43;;
7527;SDS011;3805;49.006;8.514;2024-03-07T09:36:04;29.60;;;19.13;;
7527;SDS011;3805;49.006;8.514;2024-03-07T09:38:54;31.30;;;19.90;;
7527;SDS011;3805;49.006;8.514;2024-03-07T09:41:44;30.03;;;20.27;;
7527;SDS011;3805;49.006;8.514;2024-03-07T09:44:34;30.17;;;21.20;;
7527;SDS011;3805;49.006;8.514;2024-03-07T09:47:24;37.50;;;19.37;;
7527;SDS011;3805;49.006;8.514;2024-03-07T09:50:12;30.97;;;21.47;;
7527;SDS011;3805;49.006;8.514;2024-03-07T09:53:02;30.20;;;21.40;;
7527;SDS011;3805;49.006;8.514;2024-03-07T09:55:52;32.17;;;20.90;;
7527;SDS011;3805;49.006;8.514;2024-03-07T09:58:41;34.77;;;21.17;;
7527;SDS011;3805;49.006;8.514;2024-03-07T10:01:33;32.00;;;20.30;;
7527;SDS011;3805;49.006;8.514;2024-03-07T10:04:24;36.03;;;19.93;;
7527;SDS011;3805;49.006;8.514;2024-03-07T10:07:17;37.23;;;22.80;;
7527;SDS011;3805;49.006;8.514;2024-03-07T10:10:06;32.40;;;21.10;;
7527;SDS011;3805;49.006;8.514;2024-03-07T10:12:59;32.50;;;21.00;;
7527;SDS011;3805;49.006;8.514;2024-03-07T10:15:48;33.97;;;21.77;;
7527;SDS011;3805;49.006;8.514;2024-03-07T10:18:42;33.67;;;21.10;;
7527;SDS011;3805;49.006;8.514;2024-03-07T10:21:33;30.40;;;22.07;;
7527;SDS011;3805;49.006;8.514;2024-03-07T10:24:23;30.70;;;20.47;;
7527;SDS011;3805;49.006;8.514;2024-03-07T10:27:12;36.63;;;22.73;;
7527;SDS011;3805;49.006;8.514;2024-03-07T10:30:01;33.93;;;22.30;;
7527;SDS011;3805;49.006;8.514;2024-03-07T10:32:51;32.40;;;20.97;;
7527;SDS011;3805;49.006;8.514;2024-03-07T10:35:46;36.13;;;23.50;;
7527;SDS011;3805;49.006;8.514;2024-03-07T10:38:36;34.40;;;22.27;;
7527;SDS011;3805;49.006;8.514;2024-03-07T10:41:26;38.00;;;24.10;;
7527;SDS011;3805;49.006;8.514;2024-03-07T10:44:18;35.17;;;23.57;;
7527;SDS011;3805;49.006;8.514;2024-03-07T10:47:09;37.90;;;23.00;;
7527;SDS011;3805;49.006;8.514;2024-03-07T10:50:02;34.90;;;23.77;;
7527;SDS011;3805;49.006;8.514;2024-03-07T10:53:03;39.87;;;25.40;;
7527;SDS011;3805;49.006;8.514;2024-03-07T10:56:05;38.63;;;24.43;;
7527;SDS011;3805;49.006;8.514;2024-03-07T10:59:15;39.00;;;26.57;;
7527;SDS011;3805;49.006;8.514;2024-03-07T11:02:06;37.97;;;24.10;;
7527;SDS011;3805;49.006;8.514;2024-03-07T11:05:04;38.30;;;26.40;;
7527;SDS011;3805;49.006;8.514;2024-03-07T11:07:59;38.87;;;24.97;;
7527;SDS011;3805;49.006;8.514;2024-03-07T11:10:53;33.63;;;23.53;;
7527;SDS011;3805;49.006;8.514;2024-03-07T11:13:42;34.90;;;24.73;;
7527;SDS011;3805;49.006;8.514;2024-03-07T11:16:31;35.83;;;24.80;;
7527;SDS011;3805;49.006;8.514;2024-03-07T11:19:24;34.53;;;24.50;;
7527;SDS011;3805;49.006;8.514;2024-03-07T11:22:27;39.47;;;25.23;;
7527;SDS011;3805;49.006;8.514;2024-03-07T11:25:18;33.80;;;22.67;;
7527;SDS011;3805;49.006;8.514;2024-03-07T11:28:09;36.10;;;24.37;;
7527;SDS011;3805;49.006;8.514;2024-03-07T11:31:07;34.30;;;24.93;;
7527;SDS011;3805;49.006;8.514;2024-03-07T11:34:12;34.90;;;22.83;;
7527;SDS011;3805;49.006;8.514;2024-03-07T11:37:02;37.60;;;25.27;;
7527;SDS011;3805;49.006;8.514;2024-03-07T11:39:55;35.30;;;22.43;;
7527;SDS011;3805;49.006;8.514;2024-03-07T11:42:46;38.37;;;23.87;;
7527;SDS011;3805;49.006;8.514;2024-03-07T11:45:37;33.53;;;23.00;;
7527;SDS011;3805;49.006;8.514;2024-03-07T11:48:32;39.30;;;24.07;;
7527;SDS011;3805;49.006;8.514;2024-03-07T11:51:22;34.60;;;24.13;;
7527;SDS011;3805;49.006;8.514;2024-03-07T11:54:14;38.70;;;24.77;;
7527;SDS011;3805;49.006;8.514;2024-03-07T11:57:02;36.10;;;23.40;;
7527;SDS011;3805;49.006;8.514;2024-03-07T12:00:02;37.93;;;26.80;;
7527;SDS011;3805;49.006;8.514;2024-03-07T12:02:57;34.70;;;23.93;;
7527;SDS011;3805;49.006;8.514;2024-03-07T12:05:45;35.93;;;23.80;;
7527;SDS011;3805;49.006;8.514;2024-03-07T12:08:34;38.07;;;24.73;;
7527;SDS011;3805;49.006;8.514;2024-03-07T12:11:25;34.40;;;23.63;;
7527;SDS011;3805;49.006;8.514;2024-03-07T12:14:15;38.80;;;25.80;;
7527;SDS011;3805;49.006;8.514;2024-03-07T12:17:03;37.23;;;25.03;;
7527;SDS011;3805;49.006;8.514;2024-03-07T12:19:55;36.30;;;23.73;;
7527;SDS011;3805;49.006;8.514;2024-03-07T12:22:54;39.10;;;27.40;;
7527;SDS011;3805;49.006;8.514;2024-03-07T12:25:58;36.80;;;23.00;;
7527;SDS011;3805;49.006;8.514;2024-03-07T12:28:48;47.17;;;26.10;;
7527;SDS011;3805;49.006;8.514;2024-03-07T12:31:38;37.37;;;23.53;;
7527;SDS011;3805;49.006;8.514;2024-03-07T12:34:28;35.60;;;23.83;;
7527;SDS011;3805;49.006;8.514;2024-03-07T12:37:20;35.80;;;24.60;;
7527;SDS011;3805;49.006;8.514;2024-03-07T12:40:16;37.07;;;25.10;;
7527;SDS011;3805;49.006;8.514;2024-03-07T12:43:13;36.83;;;23.27;;
7527;SDS011;3805;49.006;8.514;2024-03-07T12:46:05;40.47;;;24.50;;
7527;SDS011;3805;49.006;8.514;2024-03-07T12:48:57;35.67;;;22.73;;
7527;SDS011;3805;49.006;8.514;2024-03-07T12:51:46;36.40;;;24.30;;
7527;SDS011;3805;49.006;8.514;2024-03-07T12:54:40;37.00;;;22.83;;
7527;SDS011;3805;49.006;8.514;2024-03-07T12:57:29;35.00;;;24.27;;
7527;SDS011;3805;49.006;8.514;2024-03-07T13:00:21;33.70;;;23.20;;
7527;SDS011;3805;49.006;8.514;2024-03-07T13:03:10;35.80;;;23.17;;
7527;SDS011;3805;49.006;8.514;2024-03-07T13:06:02;37.67;;;24.20;;
7527;SDS011;3805;49.006;8.514;2024-03-07T13:08:54;35.20;;;23.20;;
7527;SDS011;3805;49.006;8.514;2024-03-07T13:11:45;37.50;;;24.70;;
7527;SDS011;3805;49.006;8.514;2024-03-07T13:14:35;36.17;;;22.93;;
7527;SDS011;3805;49.006;8.514;2024-03-07T13:17:26;35.70;;;25.30;;
7527;SDS011;3805;49.006;8.514;2024-03-07T13:20:14;33.93;;;24.03;;
7527;SDS011;3805;49.006;8.514;2024-03-07T13:23:04;37.73;;;25.00;;
7527;SDS011;3805;49.006;8.514;2024-03-07T13:25:55;32.10;;;23.77;;
7527;SDS011;3805;49.006;8.514;2024-03-07T13:28:49;36.53;;;25.40;;
7527;SDS011;3805;49.006;8.514;2024-03-07T13:31:39;36.00;;;24.67;;
7527;SDS011;3805;49.006;8.514;2024-03-07T13:34:29;32.30;;;22.87;;
7527;SDS011;3805;49.006;8.514;2024-03-07T13:37:20;39.00;;;24.70;;
7527;SDS011;3805;49.006;8.514;2024-03-07T13:40:09;33.90;;;23.83;;
7527;SDS011;3805;49.006;8.514;2024-03-07T13:43:11;37.97;;;24.23;;
7527;SDS011;3805;49.006;8.514;2024-03-07T13:46:06;44.60;;;23.93;;
7527;SDS011;3805;49.006;8.514;2024-03-07T13:49:01;36.27;;;24.03;;
7527;SDS011;3805;49.006;8.514;2024-03-07T13:52:02;33.87;;;22.20;;
7527;SDS011;3805;49.006;8.514;2024-03-07T13:54:59;35.80;;;22.20;;
7527;SDS011;3805;49.006;8.514;2024-03-07T13:57:52;33.43;;;22.53;;
7527;SDS011;3805;49.006;8.514;2024-03-07T14:00:46;34.73;;;23.10;;
7527;SDS011;3805;49.006;8.514;2024-03-07T14:03:47;32.60;;;21.87;;
7527;SDS011;3805;49.006;8.514;2024-03-07T14:06:54;31.73;;;21.43;;
7527;SDS011;3805;49.006;8.514;2024-03-07T14:10:15;38.40;;;23.40;;
7527;SDS011;3805;49.006;8.514;2024-03-07T14:13:23;37.30;;;24.50;;
7527;SDS011;3805;49.006;8.514;2024-03-07T14:20:12;33.53;;;22.40;;
7527;SDS011;3805;49.006;8.514;2024-03-07T14:23:30;39.57;;;22.73;;
7527;SDS011;3805;49.006;8.514;2024-03-07T14:26:46;38.07;;;25.67;;
7527;SDS011;3805;49.006;8.514;2024-03-07T14:30:03;33.40;;;24.13;;
7527;SDS011;3805;49.006;8.514;2024-03-07T14:33:08;33.63;;;23.27;;
7527;SDS011;3805;49.006;8.514;2024-03-07T14:36:00;33.00;;;20.83;;
7527;SDS011;3805;49.006;8.514;2024-03-07T14:38:52;36.53;;;21.87;;
7527;SDS011;3805;49.006;8.514;2024-03-07T14:41:43;33.17;;;22.80;;
7527;SDS011;3805;49.006;8.514;2024-03-07T14:44:36;40.70;;;23.87;;
7527;SDS011;3805;49.006;8.514;2024-03-07T14:47:25;34.47;;;23.60;;
7527;SDS011;3805;49.006;8.514;2024-03-07T14:50:15;40.83;;;22.93;;
7527;SDS011;3805;49.006;8.514;2024-03-07T14:53:09;34.63;;;23.17;;
7527;SDS011;3805;49.006;8.514;2024-03-07T14:55:58;39.00;;;23.80;;
7527;SDS011;3805;49.006;8.514;2024-03-07T14:58:47;42.33;;;26.23;;
7527;SDS011;3805;49.006;8.514;2024-03-07T15:01:35;36.30;;;22.50;;
7527;SDS011;3805;49.006;8.514;2024-03-07T15:04:25;43.40;;;22.77;;
7527;SDS011;3805;49.006;8.514;2024-03-07T15:07:15;37.70;;;23.90;;
7527;SDS011;3805;49.006;8.514;2024-03-07T15:10:06;37.63;;;23.03;;
7527;SDS011;3805;49.006;8.514;2024-03-07T15:13:05;33.50;;;21.10;;
7527;SDS011;3805;49.006;8.514;2024-03-07T15:15:59;34.97;;;23.10;;
7527;SDS011;3805;49.006;8.514;2024-03-07T15:18:48;34.70;;;22.13;;
7527;SDS011;3805;49.006;8.514;2024-03-07T15:21:37;33.03;;;23.23;;
7527;SDS011;3805;49.006;8.514;2024-03-07T15:24:27;36.90;;;25.50;;
7527;SDS011;3805;49.006;8.514;2024-03-07T15:27:16;34.57;;;23.30;;
7527;SDS011;3805;49.006;8.514;2024-03-07T15:30:07;41.10;;;23.50;;
7527;SDS011;3805;49.006;8.514;2024-03-07T15:33:01;32.37;;;22.07;;
7527;SDS011;3805;49.006;8.514;2024-03-07T15:35:51;31.60;;;23.27;;
7527;SDS011;3805;49.006;8.514;2024-03-07T15:38:40;30.67;;;21.77;;
7527;SDS011;3805;49.006;8.514;2024-03-07T15:41:29;31.40;;;22.90;;
7527;SDS011;3805;49.006;8.514;2024-03-07T15:44:20;32.60;;;22.30;;
7527;SDS011;3805;49.006;8.514;2024-03-07T15:47:09;41.63;;;23.13;;
7527;SDS011;3805;49.006;8.514;2024-03-07T15:49:58;27.97;;;21.90;;
7527;SDS011;3805;49.006;8.514;2024-03-07T15:52:47;32.97;;;22.60;;
7527;SDS011;3805;49.006;8.514;2024-03-07T15:55:38;30.20;;;21.90;;
7527;SDS011;3805;49.006;8.514;2024-03-07T15:58:27;36.43;;;23.70;;
7527;SDS011;3805;49.006;8.514;2024-03-07T16:01:17;32.70;;;23.73;;
7527;SDS011;3805;49.006;8.514;2024-03-07T16:04:05;37.30;;;23.80;;
7527;SDS011;3805;49.006;8.514;2024-03-07T16:06:54;32.03;;;22.57;;
7527;SDS011;3805;49.006;8.514;2024-03-07T16:09:43;32.53;;;22.80;;
7527;SDS011;3805;49.006;8.514;2024-03-07T16:12:31;35.23;;;22.87;;
7527;SDS011;3805;49.006;8.514;2024-03-07T16:15:20;30.00;;;21.97;;
7527;SDS011;3805;49.006;8.514;2024-03-07T16:18:28;31.13;;;21.93;;
7527;SDS011;3805;49.006;8.514;2024-03-07T16:21:17;35.93;;;22.83;;
7527;SDS011;3805;49.006;8.514;2024-03-07T16:24:05;38.80;;;24.27;;
7527;SDS011;3805;49.006;8.514;2024-03-07T16:26:55;28.10;;;19.50;;
7527;SDS011;3805;49.006;8.514;2024-03-07T16:29:45;35.17;;;22.57;;
7527;SDS011;3805;49.006;8.514;2024-03-07T16:32:36;35.63;;;21.57;;
7527;SDS011;3805;49.006;8.514;2024-03-07T16:35:26;29.80;;;20.37;;
7527;SDS011;3805;49.006;8.514;2024-03-07T16:38:18;32.73;;;23.40;;
7527;SDS011;3805;49.006;8.514;2024-03-07T16:41:09;31.97;;;22.40;;
7527;SDS011;3805;49.006;8.514;2024-03-07T16:43:58;36.23;;;22.60;;
7527;SDS011;3805;49.006;8.514;2024-03-07T16:46:49;36.07;;;25.10;;
7527;SDS011;3805;49.006;8.514;2024-03-07T16:49:37;38.43;;;25.23;;
7527;SDS011;3805;49.006;8.514;2024-03-07T16:52:28;36.23;;;24.80;;
7527;SDS011;3805;49.006;8.514;2024-03-07T16:55:17;33.97;;;23.13;;
7527;SDS011;3805;49.006;8.514;2024-03-07T16:58:08;36.60;;;27.60;;
7527;SDS011;3805;49.006;8.514;2024-03-07T17:01:00;42.73;;;26.10;;
7527;SDS011;3805;49.006;8.514;2024-03-07T17:03:49;35.03;;;22.93;;
7527;SDS011;3805;49.006;8.514;2024-03-07T17:06:40;37.17;;;21.53;;
7527;SDS011;3805;49.006;8.514;2024-03-07T17:09:30;33.40;;;23.37;;
7527;SDS011;3805;49.006;8.514;2024-03-07T17:12:18;34.23;;;22.33;;
7527;SDS011;3805;49.006;8.514;2024-03-07T17:15:07;35.43;;;24.80;;